• Join FlightAware (Why Join?)
  • Login
  • US Flag 
10:24AM EDT


 

Airport Tracker/Info


-or-


 

Live Flight TrackerFlight Track Log ✈ SWA3685 ✈ 29-Apr-2013 ✈ KPHX - KABQ

Flight Track Log - Related Links

Times and Time Zones

All times are in EDT time to prevent confusion due to time zone crossing. See the SWA3685 flight status page for this flight to view local times or setup timezone preferences in your user account.

Time Position Orientation Groundspeed Altitude Reporting Facility
EDT Latitude Longitude Course Direction KTS MPH feet Rate Location/Type
09:29AM 33.4333 -111.9833 90° East 163 188 2,000  Level Phoenix TRACON
09:30AM 33.4333 -111.9167 90° East 213 245 3,700 1,260 Climbing Phoenix TRACON
09:31AM 33.4339 -111.9094 85° East 214 246 3,900 2,160 Climbing Albuquerque Center
09:32AM 33.4647 -111.8161 68° East 266 306 6,700 3,060 Climbing Albuquerque Center
09:33AM 33.5053 -111.7367 59° Northeast 281 323 10,200 2,880 Climbing Albuquerque Center
09:34AM 33.5492 -111.6436 60° Northeast 325 374 12,600 2,760 Climbing Albuquerque Center
09:35AM 33.5883 -111.5358 66° East 355 409 15,900 3,240 Climbing Albuquerque Center
09:36AM 33.6300 -111.4247 66° East 367 422 19,200 2,940 Climbing Albuquerque Center
09:37AM 33.6683 -111.3061 69° East 382 440 21,900 2,400 Climbing Albuquerque Center
09:38AM 33.7050 -111.1789 71° East 404 465 24,200 2,220 Climbing Albuquerque Center
09:39AM 33.7433 -111.0481 71° East 417 480 26,500 2,040 Climbing Albuquerque Center
09:40AM 33.7811 -110.9122 71° East 428 493 28,400 1,920 Climbing Albuquerque Center
09:41AM 33.8283 -110.7444 71° East 439 505 30,500 2,100 Climbing Albuquerque Center
09:42AM 33.8689 -110.6047 71° East 444 511 32,700 1,860 Climbing Albuquerque Center
09:43AM 33.9078 -110.4653 71° East 442 509 34,400 1,560 Climbing Albuquerque Center
09:44AM 33.9425 -110.3381 72° East 442 509 35,900 1,260 Climbing Albuquerque Center
09:45AM 33.9828 -110.1989 71° East 443 510 37,000 540 Climbing Albuquerque Center
09:46AM 34.0253 -110.0489 71° East 442 509 37,000  Level Albuquerque Center
09:47AM 34.0675 -109.8947 72° East 436 502 37,000  Level Albuquerque Center
09:48AM 34.1044 -109.7639 71° East 432 497 37,000  Level Albuquerque Center
09:49AM 34.1464 -109.6092 72° East 434 499 37,000  Level Albuquerque Center
09:50AM 34.1819 -109.4756 72° East 436 502 37,000  Level Albuquerque Center
09:51AM 34.2183 -109.3461 71° East 434 499 37,000  Level Albuquerque Center
09:52AM 34.2558 -109.2061 72° East 437 503 37,000  Level Albuquerque Center
09:53AM 34.2931 -109.0667 72° East 438 504 37,000  Level Albuquerque Center
09:54AM 34.3392 -108.8964 72° East 440 506 37,000  Level Albuquerque Center
09:55AM 34.3747 -108.7600 72° East 442 509 37,000 -120 Level Albuquerque Center
09:56AM 34.4103 -108.6253 72° East 442 509 36,800 -1,200 Descending Albuquerque Center
09:57AM 34.4525 -108.4636 72° East 447 514 34,600 -2,340 Descending Albuquerque Center
09:58AM 34.4864 -108.3336 72° East 449 517 32,100 -2,340 Descending Albuquerque Center
09:59AM 34.5244 -108.1933 72° East 442 509 29,900 -2,160 Descending Albuquerque Center
10:00AM 34.5589 -108.0564 73° East 431 496 27,700 -2,100 Descending Albuquerque Center
10:01AM 34.5928 -107.9244 73° East 416 479 25,700 -1,980 Descending Albuquerque Center
10:02AM 34.6269 -107.7981 72° East 401 461 23,700 -2,160 Descending Albuquerque Center
10:03AM 34.6858 -107.6608 62° Northeast 387 445 21,300 -2,100 Descending Albuquerque Center
10:05AM 34.7364 -107.5361 64° Northeast 369 425 19,200 -1,800 Descending Albuquerque Center
10:05AM 34.7792 -107.4428 61° Northeast 363 418 17,700 -1,800 Descending Albuquerque Center
10:06AM 34.8244 -107.3378 62° Northeast 354 407 15,800 -1,500 Descending Albuquerque Center
10:08AM 34.8658 -107.2408 62° Northeast 332 382 14,700 -1,320 Descending Albuquerque Center
10:09AM 34.8969 -107.1439 69° East 325 374 13,200 -1,320 Descending Albuquerque Center
10:10AM 34.8917 -107.0422 94° East 312 359 12,000 -1,020 Descending Albuquerque Center
10:11AM 34.8864 -106.9506 94° East 293 337 11,200 -900 Descending Albuquerque Center
10:12AM 34.8783 -106.8542 96° East 259 298 10,200 -1,020 Descending Albuquerque Center
10:13AM 34.8861 -106.7931 81° East 218 251 9,200 -1,080 Descending Albuquerque Center
10:14AM 34.9225 -106.7492 45° Northeast 197 227 8,000 -1,140 Descending Albuquerque Center
10:15AM 34.9608 -106.7042 44° Northeast 177 204 7,000 -900 Descending Albuquerque Center
10:16AM 34.9906 -106.6683 45° Northeast 176 203 6,200 -780 Descending Albuquerque Center
10:17AM 35.0203 -106.6317 45° Northeast 163 188 5,400 -780 Descending Albuquerque Center
10:19AM 35.0333 -106.6000 90° East  Level FlightAware Approximate